aviador You're here:

ETNL Decoded Metar

LAAGE in GERMANY
Report Time2017-12-18 02:20:00
UTC Time2017-12-18 03:26:38
Flight Rules mvfr MVFR
Wind180° at 04 kt
W.Decomp.*RWY 10: 0.9 kt HW 3.9 kt RCW
W.Rank180° ranks 17
Current wind is below 180° avg. (5.0)
Visibility9999 m
Phenomena:N/A
Clouds:Broken 020 Hf
Broken 180 Hf
Expected CloudBase > 400 ft AGL from Temp-Dew spread
Ceiling2,000 ft
Temp-1°C (ISA -16)
Dew Point-2°C (93% RH)
AAT-4.7°C
QNH1020 hPa
Density Alt-1,962 ft
Elevation131 ft
Report Wrong Elevation
Raw Report
METAR ETNL 180220Z 18004KT 9999 BKN020 BKN180 M01/M02 Q1020 WHT=

Extra information for ETNL:More info

Metar Taf Metar & Taf Last 4 Metars F.Rules Stats Wind Profile Meteogram Temp Stats Airport Information Weather charts Add Link Nearby VenuesMetar ALERT Operation Metar Decoded Social comments